Time;durP1;ratioP1;P1;durP2;ratioP2;P2;SDS_P1;SDS_P2;PMS_P1;PMS_P2;Temp;Humidity;BMP_temperature;BMP_pressure;BME280_temperature;BME280_humidity;BME280_pressure;Samples;Min_cycle;Max_cycle;Signal;HPM_P1;HPM_P2
2020/12/05 00:01:36;;;;;;;8.65;7.85;;;;;;;;;;5114269;27;20396;-66
2020/12/05 00:05:55;;;;;;;9.00;8.30;;;;;;;;;;5112391;27;20375;-65
2020/12/05 00:08:21;;;;;;;;;;;;;;;;;;5114195;28;20034;-65
2020/12/05 00:15:12;;;;;;;7.68;7.18;;;;;;;;;;5094134;28;20356;-66
2020/12/05 00:18:56;;;;;;;8.25;7.53;;;;;;;;;;5113791;27;20384;-66
2020/12/05 00:25:26;;;;;;;8.13;7.53;;;;;;;;;;5114643;27;20347;-66
2020/12/05 00:33:22;;;;;;;9.18;7.60;;;;;;;;;;5114476;27;20432;-66
2020/12/05 00:37:49;;;;;;;8.40;7.57;;;;;;;;;;5113686;27;20359;-65
2020/12/05 00:42:22;;;;;;;8.25;7.47;;;;;;;;;;5114530;27;20129;-65
2020/12/05 00:44:48;;;;;;;9.32;8.35;;;;;;;;;;5114471;28;20099;-65
2020/12/05 00:47:14;;;;;;;;;;;;;;;;;;5109757;28;20462;-65
2020/12/05 00:49:40;;;;;;;8.50;7.90;;;;;;;;;;5114063;28;19908;-65
2020/12/05 00:54:32;;;;;;;8.57;7.93;;;;;;;;;;5114511;27;20343;-65
2020/12/05 00:57:38;;;;;;;10.25;8.57;;;;;;;;;;5113743;27;20412;-66
2020/12/05 01:02:14;;;;;;;8.55;7.85;;;;;;;;;;5114441;27;20404;-66
2020/12/05 01:04:40;;;;;;;8.43;7.65;;;;;;;;;;5114402;28;20023;-66
2020/12/05 01:07:06;;;;;;;10.63;8.70;;;;;;;;;;5113536;28;20028;-66
2020/12/05 01:11:47;;;;;;;7.97;7.47;;;;;;;;;;5114245;27;20940;-66
2020/12/05 01:17:35;;;;;;;8.43;7.70;;;;;;;;;;5113984;27;20359;-65
2020/12/05 01:20:03;;;;;;;9.40;7.90;;;;;;;;;;5114518;28;20466;-65
2020/12/05 01:22:30;;;;;;;10.00;7.85;;;;;;;;;;5113858;28;20035;-65
2020/12/05 01:26:47;;;;;;;8.85;8.10;;;;;;;;;;5114232;27;20362;-66
2020/12/05 01:29:13;;;;;;;9.43;8.52;;;;;;;;;;5114626;28;20028;-66
2020/12/05 01:31:39;;;;;;;8.90;7.93;;;;;;;;;;5114091;28;20426;-66
2020/12/05 01:39:36;;;;;;;8.20;7.50;;;;;;;;;;5114648;27;20691;-66
2020/12/05 01:45:27;;;;;;;7.97;7.38;;;;;;;;;;5114078;27;20359;-65
2020/12/05 01:47:53;;;;;;;;;;;;;;;;;;5114428;28;20030;-65
2020/12/05 01:50:20;;;;;;;14.10;7.70;;;;;;;;;;5114369;28;19991;-65
2020/12/05 01:57:46;;;;;;;8.30;7.55;;;;;;;;;;5113985;27;20405;-65
2020/12/05 02:00:12;;;;;;;8.43;7.57;;;;;;;;;;5114469;28;20081;-66
2020/12/05 02:05:55;;;;;;;7.78;7.18;;;;;;;;;;5093401;28;20300;-66
2020/12/05 02:08:34;;;;;;;9.18;8.27;;;;;;;;;;5090272;28;20028;-66
2020/12/05 02:12:03;;;;;;;7.97;7.28;;;;;;;;;;5114367;27;20351;-66
2020/12/05 02:14:30;;;;;;;9.27;8.32;;;;;;;;;;5114579;28;20024;-65
2020/12/05 02:20:05;;;;;;;8.15;7.55;;;;;;;;;;5114586;27;20351;-65
2020/12/05 02:25:00;;;;;;;8.98;8.00;;;;;;;;;;5114590;27;20373;-66
2020/12/05 02:27:26;;;;;;;9.07;8.30;;;;;;;;;;5113803;28;20026;-65
2020/12/05 02:29:52;;;;;;;8.00;7.30;;;;;;;;;;5114359;28;20499;-65
2020/12/05 02:32:18;;;;;;;;;;;;;;;;;;5114555;28;20024;-65
2020/12/05 02:34:44;;;;;;;10.50;7.97;;;;;;;;;;5114511;28;19908;-66
2020/12/05 02:37:28;;;;;;;8.55;7.78;;;;;;;;;;5113744;27;20934;-66
2020/12/05 02:41:52;;;;;;;9.75;8.80;;;;;;;;;;5114323;27;20344;-66
2020/12/05 02:48:19;;;;;;;11.57;7.72;;;;;;;;;;5114182;27;20870;-64
2020/12/05 02:52:44;;;;;;;8.00;7.40;;;;;;;;;;5114608;27;20355;-65
2020/12/05 02:55:11;;;;;;;8.95;8.15;;;;;;;;;;5114710;28;20023;-65
2020/12/05 03:01:55;;;;;;;9.07;7.88;;;;;;;;;;5072851;28;20780;-66
2020/12/05 03:04:37;;;;;;;7.82;7.22;;;;;;;;;;5114354;27;21156;-65
2020/12/05 03:11:32;;;;;;;8.23;7.63;;;;;;;;;;5114408;27;20355;-65
2020/12/05 03:14:18;;;;;;;11.35;8.10;;;;;;;;;;5114429;27;20351;-65
2020/12/05 03:16:44;;;;;;;;;;;;;;;;;;5103169;28;20022;-65
2020/12/05 03:21:52;;;;;;;9.10;7.93;;;;;;;;;;5134352;27;20353;-65
2020/12/05 03:24:18;;;;;;;8.50;7.82;;;;;;;;;;5134506;28;20025;-65
2020/12/05 03:30:39;;;;;;;8.38;7.60;;;;;;;;;;5114402;27;20416;-66
2020/12/05 03:33:07;;;;;;;10.20;8.05;;;;;;;;;;5094150;28;20032;-66
2020/12/05 03:35:33;;;;;;;8.93;8.07;;;;;;;;;;5092966;28;20515;-66
2020/12/05 03:37:59;;;;;;;;;;;;;;;;;;5094196;28;20028;-66
2020/12/05 03:40:25;;;;;;;10.85;8.52;;;;;;;;;;5093899;28;19904;-65
2020/12/05 03:42:51;;;;;;;9.05;8.18;;;;;;;;;;5094052;28;20380;-65
2020/12/05 03:46:51;;;;;;;9.35;8.55;;;;;;;;;;5114004;27;20363;-65
2020/12/05 03:54:18;;;;;;;10.85;8.35;;;;;;;;;;5114654;27;20351;-65
2020/12/05 03:56:44;;;;;;;8.70;7.72;;;;;;;;;;5114090;28;20513;-65
2020/12/05 04:01:34;;;;;;;12.05;7.78;;;;;;;;;;5114153;27;20381;-66
2020/12/05 04:04:00;;;;;;;;;;;;;;;;;;5114955;28;20387;-66
2020/12/05 04:07:51;;;;;;;9.27;8.32;;;;;;;;;;5112789;27;20421;-66
2020/12/05 04:11:55;;;;;;;8.93;8.13;;;;;;;;;;5114503;27;20376;-65
2020/12/05 04:14:21;;;;;;;;;;;;;;;;;;5114928;28;20020;-65
2020/12/05 04:18:00;;;;;;;8.68;7.88;;;;;;;;;;5114210;27;20420;-65
2020/12/05 04:20:27;;;;;;;8.95;8.13;;;;;;;;;;5113920;28;20027;-65
2020/12/05 04:22:54;;;;;;;8.30;7.60;;;;;;;;;;5102433;28;20020;-66
2020/12/05 04:25:23;;;;;;;9.35;8.23;;;;;;;;;;5114459;28;20039;-66
2020/12/05 04:27:49;;;;;;;9.70;7.90;;;;;;;;;;5113802;28;20023;-66
2020/12/05 04:30:15;;;;;;;12.13;8.30;;;;;;;;;;5112972;28;20031;-66
2020/12/05 04:32:41;;;;;;;9.70;8.02;;;;;;;;;;5113861;28;20035;-66
2020/12/05 04:35:07;;;;;;;12.73;8.93;;;;;;;;;;5113815;28;20032;-66
2020/12/05 04:37:34;;;;;;;9.98;7.75;;;;;;;;;;5113461;28;20024;-66
2020/12/05 04:40:00;;;;;;;10.15;7.95;;;;;;;;;;5114124;28;20458;-66
2020/12/05 04:42:26;;;;;;;11.10;7.57;;;;;;;;;;5114215;28;20020;-66
2020/12/05 04:44:53;;;;;;;10.50;7.53;;;;;;;;;;5113517;28;20387;-66
2020/12/05 04:47:19;;;;;;;11.45;7.30;;;;;;;;;;5113580;28;20507;-66
2020/12/05 04:49:45;;;;;;;;;;;;;;;;;;5114259;28;20045;-66
2020/12/05 04:52:21;;;;;;;14.82;7.82;;;;;;;;;;5113493;28;19938;-66
2020/12/05 04:54:54;;;;;;;11.02;7.47;;;;;;;;;;5113349;28;20078;-66
2020/12/05 04:57:22;;;;;;;11.75;7.65;;;;;;;;;;5113190;28;20499;-66
2020/12/05 04:59:49;;;;;;;12.85;8.00;;;;;;;;;;5113456;28;20546;-66
2020/12/05 05:02:18;;;;;;;11.90;7.82;;;;;;;;;;5113424;28;20024;-66
2020/12/05 05:04:44;;;;;;;12.85;7.40;;;;;;;;;;5113253;28;20019;-66
2020/12/05 05:07:10;;;;;;;8.35;6.43;;;;;;;;;;5113129;28;20496;-66
2020/12/05 05:09:45;;;;;;;9.50;6.80;;;;;;;;;;5113056;28;20032;-65
2020/12/05 05:12:11;;;;;;;8.73;6.70;;;;;;;;;;5113063;28;20129;-66
2020/12/05 05:14:37;;;;;;;9.50;6.65;;;;;;;;;;5106391;28;20028;-66
2020/12/05 05:17:03;;;;;;;;;;;;;;;;;;5106316;28;20048;-66
2020/12/05 05:19:30;;;;;;;8.00;6.13;;;;;;;;;;5113384;28;19920;-66
2020/12/05 05:21:57;;;;;;;10.48;6.22;;;;;;;;;;5112868;28;20347;-66
2020/12/05 05:24:23;;;;;;;6.30;5.50;;;2.30;99.90;;;;;;5113172;28;20016;-66
2020/12/05 05:27:00;;;;;;;8.63;5.40;;;;;;;;;;5113013;28;20076;-66
2020/12/05 05:29:33;;;;;;;8.02;5.40;;;;;;;;;;5098997;28;20039;-65
2020/12/05 05:34:26;;;;;;;6.65;5.43;;;;;;;;;;5099526;28;20020;-66
2020/12/05 05:36:52;;;;;;;9.18;4.60;;;;;;;;;;5098513;28;20043;-66
2020/12/05 05:39:19;;;;;;;5.78;3.55;;;;;;;;;;5099450;28;20020;-66
2020/12/05 05:41:46;;;;;;;4.32;3.38;;;;;;;;;;5099355;28;20058;-66
2020/12/05 05:44:14;;;;;;;4.20;3.50;;;;;;;;;;5099549;28;20020;-65
2020/12/05 05:46:43;;;;;;;3.40;3.10;;;2.80;99.90;;;;;;5098849;28;20404;-65
2020/12/05 05:49:14;;;;;;;3.88;2.67;;;2.60;99.90;;;;;;5099085;28;20107;-65
2020/12/05 05:51:44;;;;;;;2.88;2.25;;;;;;;;;;5098888;28;20016;-66
2020/12/05 05:54:17;;;;;;;3.50;2.50;;;2.80;99.90;;;;;;5099188;28;20078;-65
2020/12/05 05:56:54;;;;;;;5.07;2.15;;;2.40;99.90;;;;;;5098780;28;20058;-65
2020/12/05 05:59:21;;;;;;;3.05;2.50;;;2.50;99.90;;;;;;5098825;28;20024;-66
2020/12/05 06:01:50;;;;;;;2.63;2.13;;;3.40;99.90;;;;;;5098731;28;20531;-66
2020/12/05 06:04:23;;;;;;;2.97;1.85;;;2.50;99.90;;;;;;5099067;28;20038;-66
2020/12/05 06:06:51;;;;;;;2.05;1.88;;;2.80;99.90;;;;;;5097917;28;20067;-66
2020/12/05 06:09:23;;;;;;;1.55;1.45;;;1.50;99.90;;;;;;5098703;28;20082;-66
2020/12/05 06:11:52;;;;;;;2.80;1.58;;;3.60;99.90;;;;;;5098818;28;20024;-66
2020/12/05 06:14:21;;;;;;;3.03;1.52;;;2.80;99.90;;;;;;5094218;28;20021;-66
2020/12/05 06:16:52;;;;;;;1.65;1.55;;;3.20;99.90;;;;;;5089089;28;20036;-66
2020/12/05 06:19:18;;;;;;;4.90;1.85;;;2.70;99.90;;;;;;5097250;28;20016;-66
2020/12/05 06:21:49;;;;;;;1.95;1.73;;;3.50;99.90;;;;;;5098285;28;20016;-66
2020/12/05 06:24:21;;;;;;;1.73;1.48;;;3.20;99.90;;;;;;5098343;28;20161;-66
2020/12/05 06:26:49;;;;;;;1.60;1.48;;;2.80;99.90;;;;;;5098169;28;20103;-66
2020/12/05 06:29:16;;;;;;;4.28;1.45;;;2.80;99.90;;;;;;5098220;28;20028;-65
2020/12/05 06:31:44;;;;;;;2.08;1.50;;;3.40;99.90;;;;;;5098190;28;20028;-66
2020/12/05 06:34:11;;;;;;;2.65;1.75;;;3.40;99.90;;;;;;5085477;28;20050;-66
2020/12/05 06:36:40;;;;;;;3.70;1.30;;;3.70;99.90;;;;;;5097371;28;20032;-66
2020/12/05 06:39:06;;;;;;;1.88;1.50;;;3.80;99.90;;;;;;5097443;28;20062;-66
2020/12/05 06:41:32;;;;;;;;;;;2.90;99.90;;;;;;5097995;28;20454;-66
2020/12/05 06:44:18;;;;;;;2.38;1.50;;;4.70;99.90;;;;;;5097834;28;19954;-66
2020/12/05 06:46:58;;;;;;;1.65;1.55;;;3.20;99.90;;;;;;5097620;28;20081;-66
2020/12/05 06:49:37;;;;;;;2.03;1.63;;;;;;;;;;5098220;28;20020;-66
2020/12/05 06:52:22;;;;;;;5.53;2.05;;;3.70;99.90;;;;;;5097459;28;20039;-66
2020/12/05 06:54:49;;;;;;;2.03;1.60;;;3.30;99.90;;;;;;5097597;28;20126;-66
2020/12/05 06:57:15;;;;;;;6.10;1.70;;;3.50;99.90;;;;;;5097623;28;20028;-66
2020/12/05 06:59:41;;;;;;;;;;;;;;;;;;5097899;28;20027;-66
2020/12/05 07:02:28;;;;;;;1.92;1.58;;;4.40;99.90;;;;;;5097579;28;20453;-66
2020/12/05 07:05:19;;;;;;;6.68;1.63;;;4.10;99.90;;;;;;5097441;28;20028;-66
2020/12/05 07:07:50;;;;;;;3.20;1.50;;;5.00;99.90;;;;;;5094726;28;20442;-66
2020/12/05 07:10:17;;;;;;;4.07;1.58;;;4.00;99.90;;;;;;5097748;28;20499;-66
2020/12/05 07:12:44;;;;;;;1.60;1.40;;;3.50;99.90;;;;;;5097518;28;20035;-66
2020/12/05 07:15:22;;;;;;;6.10;1.55;;;4.20;99.90;;;;;;5097401;28;20028;-66
2020/12/05 07:17:49;;;;;;;3.08;1.50;;;4.10;99.90;;;;;;5096426;28;20048;-66
2020/12/05 07:20:15;;;;;;;7.60;1.60;;;4.60;99.90;;;;;;5097619;28;20024;-66
2020/12/05 07:22:44;;;;;;;3.22;1.30;;;4.30;99.90;;;;;;5097005;28;20073;-66
2020/12/05 07:25:10;;;;;;;1.30;1.25;;;4.00;99.90;;;;;;5096990;28;20016;-67
2020/12/05 07:27:36;;;;;;;5.35;1.90;;;4.70;99.90;;;;;;5096607;28;20111;-66
2020/12/05 07:30:02;;;;;;;;;;;4.30;99.90;;;;;;5097777;28;20456;-67
2020/12/05 07:32:33;;;;;;;3.08;1.70;;;4.70;99.90;;;;;;5096980;28;20359;-67
2020/12/05 07:35:02;;;;;;;3.08;1.40;;;5.00;99.90;;;;;;5097095;28;20503;-67
2020/12/05 07:37:29;;;;;;;4.05;1.58;;;4.50;99.90;;;;;;5096264;28;20028;-66
2020/12/05 07:39:55;;;;;;;4.00;1.40;;;4.20;99.90;;;;;;5097146;28;20095;-66
2020/12/05 07:42:22;;;;;;;2.70;1.35;;;4.30;99.90;;;;;;5096994;28;20078;-67
2020/12/05 07:44:48;;;;;;;2.72;1.45;;;4.40;99.90;;;;;;5096914;28;20020;-66
2020/12/05 07:47:21;;;;;;;2.95;1.38;;;4.40;99.90;;;;;;5095583;28;20098;-67
2020/12/05 07:49:55;;;;;;;4.57;1.50;;;3.90;99.90;;;;;;5096935;28;20055;-67
2020/12/05 07:52:22;;;;;;;2.85;1.45;;;4.60;99.90;;;;;;5096475;28;20089;-66
2020/12/05 07:54:59;;;;;;;4.00;1.50;;;4.30;99.90;;;;;;5096821;28;20028;-66
2020/12/05 07:57:26;;;;;;;4.38;1.50;;;4.60;99.90;;;;;;5096709;28;20162;-67
2020/12/05 08:00:00;;;;;;;3.03;1.40;;;4.80;99.90;;;;;;5096472;28;20020;-66
2020/12/05 08:02:34;;;;;;;3.22;1.52;;;5.60;99.90;;;;;;5096544;28;20031;-67
2020/12/05 08:05:07;;;;;;;4.18;1.60;;;4.80;99.90;;;;;;5096783;28;20564;-66
2020/12/05 08:07:42;;;;;;;2.15;1.20;;;4.70;99.90;;;;;;5095244;28;20031;-66
2020/12/05 08:10:15;;;;;;;2.72;1.27;;;4.60;99.90;;;;;;5095383;28;20028;-67
2020/12/05 08:12:44;;;;;;;2.00;1.27;;;5.00;99.90;;;;;;5096701;28;20032;-67
2020/12/05 08:15:19;;;;;;;6.30;1.23;;;4.90;99.90;;;;;;5096091;28;20032;-67
2020/12/05 08:17:46;;;;;;;2.00;1.30;;;5.00;99.90;;;;;;5096091;28;20177;-67
2020/12/05 08:20:13;;;;;;;3.78;1.40;;;5.30;99.90;;;;;;5096674;28;20477;-67
2020/12/05 08:22:39;;;;;;;4.90;1.58;;;4.90;99.90;;;;;;5096727;28;20024;-66
2020/12/05 08:25:05;;;;;;;;;;;5.00;99.90;;;;;;5096953;28;20094;-67
2020/12/05 08:27:32;;;;;;;3.35;1.30;;;4.80;99.90;;;;;;5096015;28;19912;-67
2020/12/05 08:29:59;;;;;;;3.22;1.40;;;4.90;99.90;;;;;;5096504;28;20111;-67
2020/12/05 08:32:26;;;;;;;2.13;1.13;;;5.00;99.90;;;;;;5096352;28;20391;-66
2020/12/05 08:35:09;;;;;;;2.53;1.30;;;5.00;99.90;;;;;;5096061;28;20081;-67
2020/12/05 08:37:41;;;;;;;1.90;1.15;;;4.90;99.90;;;;;;5092123;28;20081;-67
2020/12/05 08:40:07;;;;;;;2.67;1.50;;;4.70;99.90;;;;;;5093957;28;20028;-67
2020/12/05 08:42:33;;;;;;;1.52;1.40;;;4.60;99.90;;;;;;5095798;28;20020;-67
2020/12/05 08:44:58;;;;;;;;;;;4.90;99.90;;;;;;5096471;28;20045;-67
2020/12/05 08:47:24;;;;;;;1.83;1.38;;;5.00;99.90;;;;;;5094989;28;20384;-67
2020/12/05 08:49:50;;;;;;;;;;;5.10;99.90;;;;;;5096651;28;20028;-67
2020/12/05 08:52:18;;;;;;;5.90;1.30;;;5.10;99.90;;;;;;5095144;28;19939;-67
2020/12/05 08:54:53;;;;;;;1.13;1.00;;;5.90;99.90;;;;;;5096204;28;20404;-66
2020/12/05 08:57:20;;;;;;;6.57;2.50;;;6.70;99.90;;;;;;5095869;28;20083;-67
2020/12/05 08:59:47;;;;;;;7.07;1.58;;;7.40;99.90;;;;;;5096024;28;20028;-67
2020/12/05 09:02:15;;;;;;;1.35;0.93;;;7.80;99.90;;;;;;5096108;28;20391;-71
2020/12/05 09:04:41;;;;;;;2.25;1.08;;;8.70;99.90;;;;;;5099535;28;20388;-67
2020/12/05 09:07:15;;;;;;;3.83;1.17;;;9.70;99.90;;;;;;5099669;28;20039;-67
2020/12/05 09:09:48;;;;;;;2.75;1.10;;;10.50;99.90;;;;;;5097514;28;20024;-67
2020/12/05 09:12:18;;;;;;;7.30;1.30;;;10.40;99.90;;;;;;5099362;28;20021;-67
2020/12/05 09:14:48;;;;;;;3.22;1.80;;;9.80;99.90;;;;;;5098435;28;20396;-67
2020/12/05 09:17:30;;;;;;;3.05;1.30;;;9.20;99.90;;;;;;5097521;28;20067;-67
2020/12/05 09:20:12;;;;;;;1.00;0.90;;;9.00;99.90;;;;;;5092445;28;20020;-67
2020/12/05 09:22:39;;;;;;;2.20;1.20;;;8.80;99.90;;;;;;5099573;28;20111;-67
2020/12/05 09:25:06;;;;;;;6.07;2.88;;;9.50;99.90;;;;;;5099862;28;20020;-67
2020/12/05 09:27:40;;;;;;;2.47;0.90;;;10.00;99.90;;;;;;5099633;28;20055;-67
2020/12/05 09:30:13;;;;;;;2.97;1.80;;;9.90;99.90;;;;;;5099540;28;20024;-67
2020/12/05 09:32:41;;;;;;;7.35;1.63;;;9.80;99.90;;;;;;5099745;28;20035;-67
2020/12/05 09:35:08;;;;;;;3.47;1.13;;;9.80;99.90;;;;;;5099304;28;20850;-68
2020/12/05 09:37:34;;;;;;;4.53;1.65;;;9.90;99.90;;;;;;5099576;28;20039;-67
2020/12/05 09:40:00;;;;;;;;;;;10.20;99.90;;;;;;5099692;28;20018;-68
2020/12/05 09:42:27;;;;;;;8.73;3.90;;;10.40;99.90;;;;;;5099587;28;19911;-67
2020/12/05 09:44:53;;;;;;;32.65;18.75;;;10.50;99.90;;;;;;5099326;28;20024;-67
2020/12/05 09:47:20;;;;;;;10.88;6.13;;;10.70;99.90;;;;;;5099370;28;20016;-67
2020/12/05 09:49:45;;;;;;;11.23;7.90;;;11.10;99.90;;;;;;5098911;28;20452;-67
2020/12/05 09:52:11;;;;;;;;;;;11.90;99.90;;;;;;5099731;28;20056;-67
2020/12/05 09:54:37;;;;;;;16.25;13.40;;;13.00;99.90;;;;;;5099096;28;19908;-67
2020/12/05 09:57:04;;;;;;;33.03;27.75;;;13.00;99.90;;;;;;5099202;28;20027;-67
2020/12/05 09:59:30;;;;;;;10.05;5.97;;;12.40;99.90;;;;;;5098940;28;20016;-67
2020/12/05 10:01:56;;;;;;;35.90;21.85;;;11.80;99.90;;;;;;5099171;28;20028;-67
2020/12/05 10:04:22;;;;;;;56.40;34.35;;;11.70;99.90;;;;;;5098848;28;20424;-67
2020/12/05 10:06:48;;;;;;;13.70;5.88;;;11.80;99.90;;;;;;5097553;28;20140;-67
2020/12/05 10:09:14;;;;;;;34.75;21.15;;;12.80;99.90;;;;;;5098824;28;20085;-68
2020/12/05 10:11:41;;;;;;;9.32;6.38;;;14.00;99.90;;;;;;5099035;28;20020;-67
2020/12/05 10:14:07;;;;;;;10.50;7.28;;;15.10;99.90;;;;;;5095639;28;20032;-67
2020/12/05 10:16:33;;;;;;;5.85;3.92;;;16.20;99.90;;;;;;5087386;28;20454;-67
2020/12/05 10:19:00;;;;;;;6.88;4.50;;;16.60;99.90;;;;;;5098536;28;20058;-67
2020/12/05 10:21:26;;;;;;;6.90;4.88;;;17.00;99.90;;;;;;5098595;28;20024;-68
2020/12/05 10:23:52;;;;;;;11.27;6.32;;;17.40;99.90;;;;;;5098508;28;20020;-67
2020/12/05 10:26:18;;;;;;;8.18;5.22;;;17.70;99.90;;;;;;5098691;28;20039;-67
2020/12/05 10:28:44;;;;;;;6.78;5.18;;;17.90;99.90;;;;;;5098591;28;20024;-68
2020/12/05 10:31:09;;;;;;;7.13;3.85;;;18.00;99.90;;;;;;5098414;28;20050;-68
2020/12/05 10:33:35;;;;;;;13.35;6.45;;;17.90;99.90;;;;;;5098349;28;20024;-67
2020/12/05 10:36:01;;;;;;;14.25;7.45;;;16.90;99.90;;;;;;5098091;28;20039;-68
2020/12/05 10:38:27;;;;;;;100.55;62.55;;;16.40;99.90;;;;;;5098344;28;20052;-67
2020/12/05 10:40:55;;;;;;;51.90;34.08;;;16.10;99.90;;;;;;5098248;28;20016;-68
2020/12/05 10:43:21;;;;;;;34.67;25.42;;;16.20;99.90;;;;;;5098175;28;20027;-67
2020/12/05 10:45:47;;;;;;;12.38;5.72;;;16.70;99.90;;;;;;5098170;28;20388;-67
2020/12/05 10:48:13;;;;;;;6.60;2.80;;;16.70;99.90;;;;;;5098327;28;20020;-68
2020/12/05 10:50:39;;;;;;;8.40;2.80;;;16.00;99.90;;;;;;5096088;28;20073;-67
2020/12/05 10:53:05;;;;;;;7.40;3.03;;;15.70;99.90;;;;;;5089064;28;20024;-68
2020/12/05 10:55:30;;;;;;;8.52;3.53;;;16.10;99.90;;;;;;5095203;28;20388;-67
2020/12/05 10:57:56;;;;;;;4.40;1.90;;;16.30;99.90;;;;;;5097565;28;20105;-68
2020/12/05 11:00:23;;;;;;;8.00;2.20;;;15.80;99.90;;;;;;5096865;28;20498;-68
2020/12/05 11:02:49;;;;;;;8.85;2.90;;;15.80;99.90;;;;;;5097390;28;20039;-67
2020/12/05 11:05:15;;;;;;;6.28;1.90;;;15.80;99.90;;;;;;5097787;28;20387;-68
2020/12/05 11:07:41;;;;;;;6.32;1.60;;;16.20;99.90;;;;;;5097622;28;20032;-68
2020/12/05 11:10:07;;;;;;;4.40;1.17;;;16.10;99.90;;;;;;5096242;28;20027;-68
2020/12/05 11:12:33;;;;;;;5.82;1.50;;;16.60;99.90;;;;;;5097337;28;20083;-68
2020/12/05 11:14:59;;;;;;;5.05;1.15;;;17.50;99.90;;;;;;5087295;28;20032;-67
2020/12/05 11:17:25;;;;;;;8.05;1.88;;;18.00;99.90;;;;;;5093692;28;20041;-67
2020/12/05 11:19:51;;;;;;;6.03;2.20;;;17.60;99.90;;;;;;5097407;28;20050;-67
2020/12/05 11:22:17;;;;;;;4.82;1.80;;;17.20;99.90;;;;;;5097366;28;20022;-67
2020/12/05 11:24:42;;;;;;;8.70;3.17;;;17.00;99.90;;;;;;5096863;28;20024;-67
2020/12/05 11:27:08;;;;;;;21.15;16.73;;;17.30;99.90;;;;;;5095239;28;20031;-68
2020/12/05 11:29:34;;;;;;;7.57;3.95;;;16.70;99.90;;;;;;5097374;28;20031;-68
2020/12/05 11:32:01;;;;;;;8.43;3.80;;;16.30;99.90;;;;;;5096370;28;20032;-67
2020/12/05 11:34:27;;;;;;;6.25;2.80;;;16.50;99.90;;;;;;5095172;28;20039;-67
2020/12/05 11:36:53;;;;;;;7.78;2.80;;;16.90;99.90;;;;;;5096541;28;20434;-68
2020/12/05 11:39:19;;;;;;;11.23;3.72;;;17.30;99.90;;;;;;5097250;28;20024;-68
2020/12/05 11:41:47;;;;;;;9.35;4.38;;;18.00;99.60;;;;;;5097208;28;20020;-68
2020/12/05 11:44:13;;;;;;;7.05;4.00;;;17.80;99.90;;;;;;5096993;28;20024;-68
2020/12/05 11:46:39;;;;;;;10.43;4.95;;;18.00;99.30;;;;;;5096867;28;20044;-68
2020/12/05 11:49:05;;;;;;;10.70;4.78;;;18.30;99.40;;;;;;5097066;28;20023;-67
2020/12/05 11:51:31;;;;;;;6.20;2.40;;;18.00;98.00;;;;;;5096814;28;20069;-67
2020/12/05 11:53:56;;;;;;;7.68;2.15;;;18.10;99.50;;;;;;5096713;28;20507;-67
2020/12/05 11:56:22;;;;;;;10.98;2.75;;;18.30;99.40;;;;;;5096820;28;20024;-68
2020/12/05 11:58:48;;;;;;;4.68;1.52;;;18.00;98.40;;;;;;5096399;28;20031;-68
2020/12/05 12:01:15;;;;;;;7.18;2.00;;;17.50;98.00;;;;;;5096754;28;20026;-68
2020/12/05 12:03:41;;;;;;;11.07;1.92;;;17.30;99.90;;;;;;5096970;28;20020;-68
2020/12/05 12:06:19;;;;;;;8.68;2.25;;;17.70;99.00;;;;;;5094477;28;20149;-67
2020/12/05 12:08:45;;;;;;;4.47;1.20;;;17.10;98.10;;;;;;5096899;28;20028;-68
2020/12/05 12:11:20;;;;;;;6.47;1.92;;;16.80;98.60;;;;;;5094163;28;20511;-67
2020/12/05 12:13:46;;;;;;;13.15;2.92;;;16.20;99.20;;;;;;5096064;28;20032;-67
2020/12/05 12:16:16;;;;;;;12.25;2.75;;;16.00;99.80;;;;;;5083051;28;20496;-68
2020/12/05 12:18:42;;;;;;;6.78;2.35;;;15.80;99.70;;;;;;5096174;28;20077;-67
2020/12/05 12:21:09;;;;;;;5.25;1.30;;;15.80;99.90;;;;;;5095727;28;20027;-67
2020/12/05 12:23:35;;;;;;;9.23;4.38;;;15.60;99.90;;;;;;5095570;28;20055;-67
2020/12/05 12:26:01;;;;;;;4.22;1.58;;;15.60;99.80;;;;;;5096628;28;20024;-68
2020/12/05 12:28:27;;;;;;;4.40;2.97;;;15.00;99.90;;;;;;5096726;28;20029;-68
2020/12/05 12:30:53;;;;;;;9.30;4.20;;;14.70;99.90;;;;;;5096470;28;20024;-67
2020/12/05 12:33:19;;;;;;;8.52;3.17;;;14.30;99.90;;;;;;5096628;28;20054;-67
2020/12/05 12:35:46;;;;;;;8.07;3.15;;;14.10;99.90;;;;;;5096473;28;20016;-67
2020/12/05 12:38:12;;;;;;;6.47;2.25;;;14.10;99.90;;;;;;5097816;28;20059;-68
2020/12/05 12:40:38;;;;;;;6.18;3.45;;;13.60;99.90;;;;;;5100574;28;20131;-68
2020/12/05 12:43:04;;;;;;;7.10;2.08;;;13.50;99.90;;;;;;5100709;28;20051;-67
2020/12/05 12:45:31;;;;;;;4.50;1.42;;;14.10;99.90;;;;;;5100444;28;20012;-67
2020/12/05 12:50:38;;;;;;;3.42;1.33;;;14.10;99.90;;;;;;5100005;28;20020;-67
2020/12/05 12:53:05;;;;;;;7.50;1.65;;;13.30;99.90;;;;;;5100447;28;20093;-68
2020/12/05 12:55:31;;;;;;;5.03;1.83;;;13.00;99.90;;;;;;5100335;28;20096;-67
2020/12/05 12:58:09;;;;;;;5.63;1.90;;;13.20;99.90;;;;;;5100343;28;20016;-68
2020/12/05 13:00:35;;;;;;;5.82;1.52;;;13.80;99.90;;;;;;5100153;28;20023;-67
2020/12/05 13:03:01;;;;;;;4.35;1.25;;;14.10;99.90;;;;;;5100280;28;20024;-68
2020/12/05 13:05:27;;;;;;;5.22;1.98;;;13.80;99.90;;;;;;5099807;28;20146;-67
2020/12/05 13:07:53;;;;;;;6.25;1.92;;;13.60;99.90;;;;;;5100180;28;20031;-67
2020/12/05 13:10:18;;;;;;;4.70;1.25;;;13.30;99.90;;;;;;5099981;28;20103;-67
2020/12/05 13:12:46;;;;;;;5.57;1.45;;;13.40;99.90;;;;;;5100307;28;20078;-67
2020/12/05 13:15:12;;;;;;;3.83;1.30;;;13.70;99.90;;;;;;5088082;28;20025;-67
2020/12/05 13:17:37;;;;;;;5.18;1.50;;;13.50;99.90;;;;;;5097760;28;20062;-67
2020/12/05 13:20:04;;;;;;;9.07;1.48;;;13.70;99.90;;;;;;5098345;28;20020;-67
2020/12/05 13:22:30;;;;;;;3.45;1.25;;;13.50;99.90;;;;;;5099784;28;20020;-67
2020/12/05 13:24:56;;;;;;;10.70;2.15;;;13.80;99.90;;;;;;5099795;28;20491;-67
2020/12/05 13:27:21;;;;;;;393.15;176.32;;;13.90;99.90;;;;;;5099586;28;20399;-67
2020/12/05 13:29:47;;;;;;;20.80;11.70;;;13.80;99.90;;;;;;5099835;28;20024;-67
2020/12/05 13:32:13;;;;;;;4.50;2.67;;;13.90;99.90;;;;;;5099643;28;20032;-67
2020/12/05 13:34:39;;;;;;;4.25;1.27;;;13.80;99.90;;;;;;5099069;28;20035;-67
2020/12/05 13:37:05;;;;;;;2.03;1.20;;;13.70;99.90;;;;;;5099295;28;20105;-67
2020/12/05 13:39:31;;;;;;;5.28;1.23;;;13.50;99.90;;;;;;5099541;28;20448;-67
2020/12/05 13:41:56;;;;;;;5.43;1.40;;;13.40;99.90;;;;;;5099381;28;20032;-67
2020/12/05 13:44:22;;;;;;;6.90;1.45;;;13.50;99.90;;;;;;5099616;28;20016;-67
2020/12/05 13:46:53;;;;;;;4.20;1.23;;;14.20;99.90;;;;;;5099201;28;20020;-67
2020/12/05 13:49:19;;;;;;;2.05;0.70;;;14.70;99.90;;;;;;5098904;28;20023;-67
2020/12/05 13:51:45;;;;;;;0.98;0.73;;;14.60;99.90;;;;;;5097881;28;20027;-67
2020/12/05 13:54:12;;;;;;;5.47;1.13;;;14.20;99.90;;;;;;5098810;28;20153;-67
2020/12/05 13:56:38;;;;;;;2.75;1.23;;;14.00;99.90;;;;;;5098774;28;20118;-67
2020/12/05 13:59:04;;;;;;;3.97;1.40;;;13.60;99.90;;;;;;5098576;28;20054;-67
2020/12/05 14:01:30;;;;;;;3.28;1.10;;;13.30;99.90;;;;;;5098203;28;20020;-67
2020/12/05 14:03:56;;;;;;;19.65;15.85;;;12.90;99.90;;;;;;5098873;28;20084;-67
2020/12/05 14:06:21;;;;;;;1.75;1.38;;;12.30;99.90;;;;;;5098619;28;20028;-67
2020/12/05 14:08:47;;;;;;;4.72;1.92;;;11.70;99.90;;;;;;5098979;28;20030;-69
2020/12/05 14:11:14;;;;;;;7.55;2.10;;;11.30;99.90;;;;;;5098891;28;20121;-69
2020/12/05 14:13:40;;;;;;;2.92;1.25;;;10.90;99.90;;;;;;5097662;28;20024;-70
2020/12/05 14:16:05;;;;;;;4.22;1.58;;;10.60;99.90;;;;;;5084594;28;20044;-69
2020/12/05 14:18:31;;;;;;;3.78;2.17;;;10.50;99.90;;;;;;5098804;28;20077;-69
2020/12/05 14:20:57;;;;;;;2.67;1.00;;;10.50;99.90;;;;;;5098354;28;20055;-69
2020/12/05 14:23:23;;;;;;;;;;;10.30;99.90;;;;;;5099193;28;20093;-69
2020/12/05 14:25:49;;;;;;;1.05;0.90;;;10.00;99.90;;;;;;5098443;28;19965;-69
2020/12/05 14:28:16;;;;;;;1.83;0.98;;;9.70;99.90;;;;;;5098684;28;20028;-69
2020/12/05 14:30:42;;;;;;;5.43;2.05;;;9.60;99.90;;;;;;5098436;28;20422;-69
2020/12/05 14:33:07;;;;;;;3.58;1.50;;;9.80;99.90;;;;;;5098597;28;20061;-69
2020/12/05 14:35:33;;;;;;;;;;;9.70;99.90;;;;;;5098534;28;20061;-69
2020/12/05 14:37:59;;;;;;;3.58;1.45;;;9.70;99.90;;;;;;5098448;28;20293;-68
2020/12/05 14:40:25;;;;;;;3.15;1.40;;;9.60;99.90;;;;;;5098143;28;20083;-69
2020/12/05 14:42:51;;;;;;;3.50;1.40;;;9.50;99.90;;;;;;5098366;28;20027;-68
2020/12/05 14:45:17;;;;;;;;;;;9.60;99.90;;;;;;5098486;28;20063;-68
2020/12/05 14:47:43;;;;;;;3.95;1.15;;;9.60;99.90;;;;;;5098456;28;19904;-69
2020/12/05 14:50:08;;;;;;;;;;;9.50;99.90;;;;;;5098206;28;20020;-68
2020/12/05 14:52:34;;;;;;;3.22;1.70;;;9.70;99.90;;;;;;5098140;28;20391;-69
2020/12/05 14:55:00;;;;;;;;;;;9.70;99.90;;;;;;5098458;28;20028;-69
2020/12/05 14:57:26;;;;;;;9.32;2.30;;;9.60;99.90;;;;;;5098193;28;19908;-68
2020/12/05 14:59:52;;;;;;;9.80;2.30;;;9.60;99.90;;;;;;5097617;28;20024;-68
2020/12/05 15:02:18;;;;;;;7.63;2.22;;;9.50;99.90;;;;;;5097389;28;20494;-69
2020/12/05 15:04:43;;;;;;;;;;;9.50;99.90;;;;;;5098157;28;20048;-69
2020/12/05 15:07:09;;;;;;;5.05;1.35;;;9.50;99.90;;;;;;5098003;28;19908;-68
2020/12/05 15:09:35;;;;;;;;;;;9.40;99.90;;;;;;5098067;28;20088;-69